ENGMENEV

Guest
Details From ENGM - Oslo Gardermoen
To ENEV - Evenes
Flight Number -
Tags Generated
Created
Modified
Stats Distance 520 nm / 964 km
Max Altitude 0 ft / 0 m
Waypoints 4
Social Downloads 2
Likes 0
Share VATSIM

Download

Looking for another format? Having issues loading an existing format? Contact us
Advertisement - Login to hide

Notes

Generated

Route

ENGM BESLO R2216 ENEV

ID Type Via Altitude Latitude Longitude Leg Dist Tot Dist Heading (true) Name
O ENGM APT - 0 ft / 0 m 60.17576˚ 11.10778˚ - 0 nm - -
BESLO FIX - 0 ft / 0 m 64.05861˚ 13.60056˚ 243 nm 243 nm 16° / 18° -
R2216 FIX - 0 ft / 0 m 68.50308˚ 16.67676˚ 276 nm 520 nm 14° / 17° -
O ENEV APT - 0 ft / 0 m 68.50391˚ 16.67667˚ 0 nm 520 nm 358° / 358° -

Altitude Profile

Advertisement - Login to hide

Weather


0- 5 10 15 20 25 30 35+ Temperature / ° C

Clouds and Precipitation
Forecast for 2017-12-14 00:00 UTC. Updated 2 hours ago

Ground ~20,000 ft ~40,000 ft Winds

ENGM

Details ICAO ENGM (OSL)
Name Oslo Gardermoen
Region Norway
Timezone Europe/Oslo (UTC+1.0)
Stats Elevation 681 ft / 208 m (AMSL)
Location 60.194507° 11.098998°
Runways 2
Magnetic Variation 3.384° E

METAR

ENGM 132050Z 04006KT 010V100 4000 -FZDZ BR SCT005 OVC007 M05/M06 Q0982 TEMPO 2000 -FZDZ BR OVC004

Decode

TAF

TAF ENGM 131700Z 1318/1418 02005KT 8000 -SN SCT004 OVC012 TEMPO 1318/1418 1200 -SN BR VV004 PROB30 1318/1401 0500 FZDZ FZFG VV001 BECMG 1412/1415 02015KT

Decode

Departure Runways

ID Width Length Bearing (true) Bearing (mag) Surface Threshold Offset Overrun Length
01L 148 ft / 45 m 12,144 ft / 3,702 m 15.89° 12.51° Concrete 0 ft / 0 m 499 ft / 152 m
01R 148 ft / 45 m 10,014 ft / 3,052 m 15.89° 12.51° Concrete 0 ft / 0 m 499 ft / 152 m
19L 148 ft / 45 m 10,014 ft / 3,052 m 195.91° 192.53° Concrete 0 ft / 0 m 466 ft / 142 m
19R 148 ft / 45 m 12,144 ft / 3,702 m 195.91° 192.53° Concrete 0 ft / 0 m 482 ft / 147 m

ENEV

Details ICAO ENEV (EVE)
Name EVENES
Region Norway
Timezone Europe/Oslo (UTC+1.0)
Stats Elevation 84 ft / 26 m (AMSL)
Location 68.491300° 16.678109°
Runways 1
Magnetic Variation 7.225° E

METAR

ENEV 132050Z 00000KT 9999 FEW009 BKN033 M01/M01 Q0980 RMK WIND 1400FT 26005KT

Decode

TAF

Not found

Destination Runways

ID Width Length Bearing (true) Bearing (mag) Surface Threshold Offset Overrun Length
17 148 ft / 45 m 9,208 ft / 2,807 m 177.60° 170.37° Asphalt 302 ft / 92 m 0 ft / 0 m
35 148 ft / 45 m 9,208 ft / 2,807 m 357.60° 350.37° Asphalt 214 ft / 65 m 925 ft / 282 m

Approach Navaids

Runway Type Ident Frequency Range Bearing (true) Bearing (mag) Slope Elevation
17 Localiser EV 108.90 MHz 18 nm / 33 km 177.60° 170.37° - 84 ft / 26 m (AMSL)
17 Glidescope EV 108.90 MHz 10 nm / 19 km 177.60° 170.37° 3.80° 84 ft / 26 m (AMSL)

Popular Alternatives